createdAt,value
2022-08-21T00:02:15.782Z,3.20
2022-08-21T00:04:57.125Z,2.75
2022-08-21T00:07:24.317Z,2.60
2022-08-21T00:09:55.256Z,2.80
2022-08-21T00:12:26.752Z,2.72
2022-08-21T00:14:57.102Z,2.85
2022-08-21T00:17:27.330Z,2.95
2022-08-21T00:19:56.324Z,3.03
2022-08-21T00:22:22.988Z,3.35
2022-08-21T00:24:49.616Z,3.13
2022-08-21T00:27:18.738Z,2.90
2022-08-21T00:29:45.402Z,3.05
2022-08-21T00:32:12.068Z,2.90
2022-08-21T00:34:38.861Z,3.13
2022-08-21T00:37:08.987Z,2.65
2022-08-21T00:39:35.584Z,3.10
2022-08-21T00:42:07.573Z,2.47
2022-08-21T00:44:34.488Z,3.05
2022-08-21T00:47:03.844Z,2.90
2022-08-21T00:49:30.499Z,3.15
2022-08-21T00:52:01.956Z,3.00
2022-08-21T00:54:32.152Z,3.15
2022-08-21T00:57:04.515Z,3.00
2022-08-21T00:59:36.084Z,2.90
2022-08-21T01:02:03.649Z,3.10
2022-08-21T01:04:30.232Z,2.97
2022-08-21T01:06:59.360Z,2.90
2022-08-21T01:09:28.468Z,2.60
2022-08-21T01:11:57.799Z,3.25
2022-08-21T01:14:24.392Z,3.08
2022-08-21T01:16:53.668Z,2.67
2022-08-21T01:19:21.804Z,3.10
2022-08-21T01:21:48.645Z,3.30
2022-08-21T01:24:19.241Z,2.78
2022-08-21T01:26:46.428Z,3.15
2022-08-21T01:29:36.982Z,3.33
2022-08-21T01:32:07.830Z,3.58
2022-08-21T01:34:37.311Z,3.40
2022-08-21T01:37:04.240Z,3.63
2022-08-21T01:39:31.091Z,3.40
2022-08-21T01:41:57.720Z,3.40
2022-08-21T01:44:25.403Z,3.00
2022-08-21T01:46:56.303Z,3.40
2022-08-21T01:49:22.915Z,3.22
2022-08-21T01:51:49.552Z,3.08
2022-08-21T01:54:18.489Z,3.78
2022-08-21T01:56:49.488Z,3.50
2022-08-21T01:59:16.315Z,3.20
2022-08-21T02:01:45.891Z,3.20
2022-08-21T02:04:16.256Z,3.22
2022-08-21T02:06:43.149Z,3.40
2022-08-21T02:09:15.038Z,3.55
2022-08-21T02:11:44.269Z,3.08
2022-08-21T02:14:12.763Z,3.10
2022-08-21T02:16:43.647Z,3.13
2022-08-21T02:19:11.439Z,3.20
2022-08-21T02:21:38.434Z,3.03
2022-08-21T02:24:05.865Z,3.50
2022-08-21T02:26:32.526Z,3.20
2022-08-21T02:29:01.800Z,2.90
2022-08-21T02:31:28.510Z,3.33
2022-08-21T02:33:57.562Z,3.00
2022-08-21T02:36:24.242Z,2.83
2022-08-21T02:38:53.644Z,3.15
2022-08-21T02:41:22.682Z,2.75
2022-08-21T02:43:49.660Z,3.10
2022-08-21T02:46:19.217Z,2.75
2022-08-21T02:48:48.165Z,2.95
2022-08-21T02:51:21.217Z,2.60
2022-08-21T02:53:49.052Z,2.78
2022-08-21T02:56:18.955Z,2.83
2022-08-21T02:58:49.917Z,2.78
2022-08-21T03:01:19.326Z,2.75
2022-08-21T03:03:50.966Z,2.65
2022-08-21T03:06:19.323Z,2.60
2022-08-21T03:08:46.300Z,2.63
2022-08-21T03:11:14.880Z,2.63
2022-08-21T03:13:42.407Z,3.13
2022-08-21T03:16:11.447Z,2.72
2022-08-21T03:18:40.796Z,2.78
2022-08-21T03:21:08.035Z,2.83
2022-08-21T03:23:34.698Z,3.00
2022-08-21T03:26:01.912Z,2.60
2022-08-21T03:28:29.298Z,2.80
2022-08-21T03:30:58.642Z,2.63
2022-08-21T03:33:25.522Z,2.63
2022-08-21T03:36:05.394Z,2.60
2022-08-21T03:38:33.678Z,3.10
2022-08-21T03:41:06.022Z,3.30
2022-08-21T03:43:33.028Z,2.63
2022-08-21T03:46:02.210Z,2.97
2022-08-21T03:48:32.018Z,2.60
2022-08-21T03:50:58.974Z,2.67
2022-08-21T03:53:27.928Z,2.65
2022-08-21T03:55:57.332Z,2.60
2022-08-21T03:58:26.831Z,2.92
2022-08-21T04:00:57.472Z,2.83
2022-08-21T04:03:25.386Z,2.40
2022-08-21T04:05:52.165Z,2.80
2022-08-21T04:08:22.070Z,2.80
2022-08-21T04:10:51.083Z,3.15
2022-08-21T04:13:20.488Z,2.80
2022-08-21T04:15:47.657Z,2.47
2022-08-21T04:18:14.667Z,2.70
2022-08-21T04:20:45.393Z,2.60
2022-08-21T04:23:23.954Z,2.60
2022-08-21T04:25:53.138Z,2.50
2022-08-21T04:28:19.951Z,2.60
2022-08-21T04:30:46.997Z,2.70
2022-08-21T04:33:16.049Z,2.70
2022-08-21T04:35:44.865Z,2.50
2022-08-21T04:38:13.721Z,2.88
2022-08-21T04:40:43.174Z,2.70
2022-08-21T04:43:11.494Z,2.33
2022-08-21T04:45:45.332Z,2.53
2022-08-21T04:48:14.490Z,2.38
2022-08-21T04:50:55.982Z,2.58
2022-08-21T04:53:32.940Z,2.70
2022-08-21T04:56:05.358Z,2.88
2022-08-21T04:58:34.440Z,2.58
2022-08-21T05:01:02.509Z,2.47
2022-08-21T05:03:33.636Z,2.08
2022-08-21T05:06:01.057Z,2.60
2022-08-21T05:08:29.196Z,2.50
2022-08-21T05:11:00.285Z,2.60
2022-08-21T05:13:27.624Z,2.50
2022-08-21T05:15:54.434Z,2.00
2022-08-21T05:18:20.916Z,2.00
2022-08-21T05:20:47.374Z,2.20
2022-08-21T05:23:15.193Z,2.25
2022-08-21T05:25:42.345Z,2.30
2022-08-21T05:28:08.935Z,2.10
2022-08-21T05:30:35.929Z,2.22
2022-08-21T05:33:04.602Z,2.03
2022-08-21T05:35:34.717Z,2.17
2022-08-21T05:38:01.465Z,2.20
2022-08-21T05:40:28.453Z,2.33
2022-08-21T05:42:56.714Z,2.25
2022-08-21T05:45:42.695Z,2.03
2022-08-21T05:48:37.146Z,2.50
2022-08-21T05:51:10.003Z,2.42
2022-08-21T05:53:39.725Z,2.00
2022-08-21T05:56:06.368Z,3.05
2022-08-21T05:58:34.134Z,2.30
2022-08-21T06:01:01.983Z,2.42
2022-08-21T06:03:32.498Z,2.08
2022-08-21T06:05:59.613Z,2.33
2022-08-21T06:08:29.322Z,2.88
2022-08-21T06:11:02.481Z,13.73
2022-08-21T06:13:29.824Z,5.78
2022-08-21T06:16:07.552Z,3.60
2022-08-21T06:18:35.184Z,2.67
2022-08-21T06:21:01.719Z,2.45
2022-08-21T06:23:32.990Z,2.60
2022-08-21T06:26:00.344Z,2.08
2022-08-21T06:28:26.835Z,1.63
2022-08-21T06:30:53.430Z,2.30
2022-08-21T06:33:20.399Z,2.17
2022-08-21T06:35:46.877Z,2.67
2022-08-21T06:38:13.698Z,1.65
2022-08-21T06:40:44.846Z,1.80
2022-08-21T06:43:16.340Z,2.03
2022-08-21T06:45:44.706Z,2.35
2022-08-21T06:48:14.502Z,1.77
2022-08-21T06:50:43.616Z,2.38
2022-08-21T06:53:12.654Z,1.83
2022-08-21T06:55:40.393Z,2.10
2022-08-21T06:58:07.623Z,2.05
2022-08-21T07:00:35.047Z,2.10
2022-08-21T07:03:02.125Z,2.00
2022-08-21T07:05:30.433Z,1.63
2022-08-21T07:07:58.104Z,2.03
2022-08-21T07:10:28.754Z,2.33
2022-08-21T07:13:00.652Z,1.80
2022-08-21T07:15:31.084Z,1.45
2022-08-21T07:17:59.247Z,1.90
2022-08-21T07:20:29.084Z,1.80
2022-08-21T07:23:00.514Z,2.25
2022-08-21T07:25:27.726Z,1.88
2022-08-21T07:27:54.690Z,1.90
2022-08-21T07:30:22.005Z,1.90
2022-08-21T07:32:50.275Z,2.00
2022-08-21T07:35:21.239Z,1.88
2022-08-21T07:37:48.247Z,2.15
2022-08-21T07:40:16.430Z,2.15
2022-08-21T07:42:47.755Z,2.28
2022-08-21T07:45:14.944Z,2.20
2022-08-21T07:47:42.811Z,2.20
2022-08-21T07:50:12.165Z,2.00
2022-08-21T07:52:39.532Z,2.05
2022-08-21T07:55:06.998Z,2.50
2022-08-21T07:57:34.006Z,2.30
2022-08-21T08:00:00.602Z,2.40
2022-08-21T08:02:29.771Z,2.10
2022-08-21T08:05:04.557Z,2.10
2022-08-21T08:07:31.073Z,2.00
2022-08-21T08:09:57.573Z,2.47
2022-08-21T08:12:24.097Z,2.28
2022-08-21T08:14:50.589Z,2.50
2022-08-21T08:17:23.089Z,2.45
2022-08-21T08:19:50.192Z,2.40
2022-08-21T08:22:23.111Z,2.40
2022-08-21T08:24:49.724Z,1.90
2022-08-21T08:27:17.328Z,2.30
2022-08-21T08:29:44.578Z,2.25
2022-08-21T08:32:11.813Z,2.22
2022-08-21T08:34:39.683Z,2.10
2022-08-21T08:37:08.238Z,2.25
2022-08-21T08:39:35.241Z,2.30
2022-08-21T08:42:33.642Z,2.50
2022-08-21T08:45:13.844Z,2.50
2022-08-21T08:47:47.567Z,2.38
2022-08-21T08:50:25.074Z,2.25
2022-08-21T08:53:26.520Z,2.17
2022-08-21T08:55:54.116Z,2.00
2022-08-21T08:58:43.101Z,1.83
2022-08-21T09:01:17.116Z,1.95
2022-08-21T09:03:51.141Z,2.30
2022-08-21T09:06:26.537Z,2.30
2022-08-21T09:09:05.073Z,2.20
2022-08-21T09:11:49.896Z,2.33
2022-08-21T09:14:31.483Z,2.22
2022-08-21T09:17:10.487Z,2.40
2022-08-21T09:20:00.555Z,2.20
2022-08-21T09:23:15.189Z,2.22
2022-08-21T09:25:50.697Z,2.40
2022-08-21T09:28:17.186Z,2.45
2022-08-21T09:30:46.019Z,2.08
2022-08-21T09:33:14.280Z,2.30
2022-08-21T09:35:54.985Z,2.30
2022-08-21T09:38:38.100Z,2.25
2022-08-21T09:41:10.873Z,1.95
2022-08-21T09:43:38.960Z,2.63
2022-08-21T09:46:13.003Z,2.00
2022-08-21T09:48:46.287Z,2.40
2022-08-21T09:51:21.501Z,3.00
2022-08-21T09:53:54.420Z,2.72
2022-08-21T09:56:45.089Z,2.35
2022-08-21T09:59:37.299Z,2.55
2022-08-21T10:02:36.677Z,3.13
2022-08-21T10:05:20.504Z,3.00
2022-08-21T10:07:47.060Z,2.20
2022-08-21T10:10:20.880Z,3.25
2022-08-21T10:12:57.438Z,3.05
2022-08-21T10:15:36.733Z,2.35
2022-08-21T10:18:06.210Z,2.70
2022-08-21T10:20:37.600Z,2.53
2022-08-21T10:23:19.342Z,2.15
2022-08-21T10:25:56.977Z,3.25
2022-08-21T10:28:54.123Z,2.90
2022-08-21T10:31:58.936Z,2.13
2022-08-21T10:34:47.102Z,2.30
2022-08-21T10:37:28.276Z,2.33
2022-08-21T10:40:29.394Z,2.13
2022-08-21T10:43:38.308Z,2.20
2022-08-21T10:46:13.834Z,2.58
2022-08-21T10:49:04.958Z,2.33
2022-08-21T10:51:41.560Z,2.20
2022-08-21T10:54:37.892Z,2.10
2022-08-21T10:57:16.828Z,1.90
2022-08-21T11:00:01.919Z,2.53
2022-08-21T11:02:41.335Z,2.70
2022-08-21T11:05:25.362Z,2.47
2022-08-21T11:08:24.462Z,2.20
2022-08-21T11:10:59.955Z,2.50
2022-08-21T11:13:40.142Z,2.22
2022-08-21T11:16:10.538Z,2.55
2022-08-21T11:18:46.689Z,1.92
2022-08-21T11:21:16.050Z,1.80
2022-08-21T11:24:15.078Z,1.90
2022-08-21T11:26:52.079Z,1.92
2022-08-21T11:29:18.672Z,2.47
2022-08-21T11:32:18.606Z,2.33
2022-08-21T11:35:07.979Z,2.20
2022-08-21T11:37:46.458Z,2.25
2022-08-21T11:40:37.831Z,1.73
2022-08-21T11:43:25.786Z,1.98
2022-08-21T11:45:55.838Z,2.20
2022-08-21T11:48:31.533Z,2.30
2022-08-21T11:50:59.436Z,1.80
2022-08-21T11:53:41.423Z,1.95
2022-08-21T11:56:19.809Z,2.08
2022-08-21T11:58:52.335Z,1.73
2022-08-21T12:01:26.677Z,1.60
2022-08-21T12:04:02.555Z,2.63
2022-08-21T12:06:32.639Z,2.30
2022-08-21T12:09:24.950Z,2.50
2022-08-21T12:12:23.380Z,2.63
2022-08-21T12:14:51.829Z,2.63
2022-08-21T12:17:24.810Z,2.63
2022-08-21T12:20:02.387Z,2.83
2022-08-21T12:22:41.707Z,2.78
2022-08-21T12:25:21.526Z,3.83
2022-08-21T12:27:50.309Z,4.13
2022-08-21T12:30:29.002Z,3.50
2022-08-21T12:32:59.256Z,3.25
2022-08-21T12:35:36.800Z,2.95
2022-08-21T12:38:08.129Z,3.35
2022-08-21T12:41:04.336Z,3.50
2022-08-21T12:43:47.650Z,3.35
2022-08-21T12:46:37.800Z,3.10
2022-08-21T12:49:28.444Z,3.40
2022-08-21T12:52:06.511Z,3.63
2022-08-21T12:54:41.791Z,3.55
2022-08-21T12:57:10.691Z,3.58
2022-08-21T12:59:42.800Z,3.15
2022-08-21T13:02:19.684Z,2.70
2022-08-21T13:04:48.663Z,3.08
2022-08-21T13:07:25.569Z,3.05
2022-08-21T13:09:56.697Z,2.88
2022-08-21T13:12:24.456Z,3.25
2022-08-21T13:15:02.480Z,2.83
2022-08-21T13:17:35.294Z,3.03
2022-08-21T13:20:22.921Z,3.40
2022-08-21T13:22:49.421Z,2.80
2022-08-21T13:25:18.720Z,3.22
2022-08-21T13:27:57.820Z,2.90
2022-08-21T13:30:24.574Z,3.05
2022-08-21T13:33:01.239Z,2.95
2022-08-21T13:35:48.069Z,3.50
2022-08-21T13:38:15.528Z,3.45
2022-08-21T13:40:53.805Z,2.92
2022-08-21T13:43:23.576Z,3.53
2022-08-21T13:45:53.337Z,3.85
2022-08-21T13:48:22.827Z,3.42
2022-08-21T13:50:50.106Z,3.53
2022-08-21T13:53:47.459Z,3.42
2022-08-21T13:56:30.766Z,3.17
2022-08-21T13:59:01.837Z,2.83
2022-08-21T14:01:38.394Z,3.30
2022-08-21T14:04:20.445Z,3.13
2022-08-21T14:06:49.782Z,3.25
2022-08-21T14:09:22.390Z,2.83
2022-08-21T14:11:51.355Z,3.77
2022-08-21T14:14:28.759Z,3.40
2022-08-21T14:17:24.293Z,3.13
2022-08-21T14:19:51.478Z,3.00
2022-08-21T14:22:39.528Z,3.40
2022-08-21T14:25:13.618Z,3.40
2022-08-21T14:28:00.454Z,3.30
2022-08-21T14:30:37.298Z,3.10
2022-08-21T14:33:11.173Z,3.22
2022-08-21T14:35:38.150Z,3.50
2022-08-21T14:38:16.672Z,2.60
2022-08-21T14:40:45.009Z,2.60
2022-08-21T14:43:11.637Z,2.70
2022-08-21T14:45:41.454Z,2.63
2022-08-21T14:48:09.100Z,3.10
2022-08-21T14:50:38.376Z,3.08
2022-08-21T14:53:11.135Z,2.75
2022-08-21T14:55:58.274Z,3.00
2022-08-21T14:58:26.275Z,3.47
2022-08-21T15:00:54.896Z,3.10
2022-08-21T15:03:24.711Z,3.10
2022-08-21T15:05:51.744Z,2.83
2022-08-21T15:08:19.068Z,2.83
2022-08-21T15:11:08.625Z,2.50
2022-08-21T15:13:33.279Z,2.63
2022-08-21T15:16:02.685Z,2.53
2022-08-21T15:18:30.618Z,2.75
2022-08-21T15:20:58.367Z,2.70
2022-08-21T15:23:24.843Z,2.65
2022-08-21T15:25:53.017Z,5.05
2022-08-21T15:28:21.211Z,6.22
2022-08-21T15:30:51.638Z,3.33
2022-08-21T15:33:19.362Z,3.30
2022-08-21T15:35:48.024Z,2.90
2022-08-21T15:38:16.127Z,2.90
2022-08-21T15:40:51.749Z,2.83
2022-08-21T15:43:30.660Z,2.85
2022-08-21T15:45:59.796Z,3.15
2022-08-21T15:48:28.929Z,3.00
2022-08-21T15:50:55.597Z,3.70
2022-08-21T15:53:22.146Z,3.50
2022-08-21T15:55:48.653Z,3.60
2022-08-21T15:58:17.354Z,3.60
2022-08-21T16:00:45.208Z,3.97
2022-08-21T16:03:17.576Z,3.65
2022-08-21T16:05:49.279Z,3.90
2022-08-21T16:08:16.624Z,3.67
2022-08-21T16:10:43.222Z,3.70
2022-08-21T16:13:20.219Z,3.88
2022-08-21T16:15:47.248Z,3.75
2022-08-21T16:18:17.073Z,4.05
2022-08-21T16:20:43.588Z,4.40
2022-08-21T16:23:12.411Z,4.18
2022-08-21T16:25:40.574Z,4.10
2022-08-21T16:28:11.522Z,3.97
2022-08-21T16:30:43.012Z,4.13
2022-08-21T16:33:33.908Z,4.20
2022-08-21T16:36:00.870Z,3.80
2022-08-21T16:38:29.200Z,3.95
2022-08-21T16:40:59.401Z,3.42
2022-08-21T16:43:28.694Z,3.95
2022-08-21T16:45:57.311Z,3.45
2022-08-21T16:48:24.584Z,4.18
2022-08-21T16:50:51.263Z,3.10
2022-08-21T16:53:18.118Z,3.13
2022-08-21T16:55:44.689Z,3.30
2022-08-21T16:58:17.537Z,2.83
2022-08-21T17:00:44.260Z,2.90
2022-08-21T17:03:16.627Z,2.95
2022-08-21T17:05:44.332Z,3.38
2022-08-21T17:08:10.953Z,2.85
2022-08-21T17:10:38.129Z,2.67
2022-08-21T17:13:09.425Z,2.90
2022-08-21T17:15:38.208Z,2.50
2022-08-21T17:18:07.572Z,2.90
2022-08-21T17:20:34.414Z,2.58
2022-08-21T17:23:01.096Z,2.80
2022-08-21T17:25:27.900Z,2.83
2022-08-21T17:27:55.174Z,2.53
2022-08-21T17:30:22.454Z,2.80
2022-08-21T17:32:52.735Z,2.83
2022-08-21T17:35:20.008Z,2.67
2022-08-21T17:37:46.671Z,2.35
2022-08-21T17:40:15.364Z,2.53
2022-08-21T17:42:43.691Z,2.22
2022-08-21T17:45:17.479Z,2.58
2022-08-21T17:47:44.090Z,2.65
2022-08-21T17:50:14.124Z,2.67
2022-08-21T17:52:44.143Z,2.60
2022-08-21T17:55:13.170Z,2.70
2022-08-21T17:57:41.647Z,2.58
2022-08-21T18:00:12.455Z,2.58
2022-08-21T18:02:40.933Z,2.53
2022-08-21T18:05:10.360Z,2.70
2022-08-21T18:07:36.881Z,2.70
2022-08-21T18:10:11.053Z,2.55
2022-08-21T18:12:42.751Z,2.70
2022-08-21T18:15:12.575Z,3.00
2022-08-21T18:17:45.345Z,2.70
2022-08-21T18:20:12.069Z,3.30
2022-08-21T18:22:38.571Z,3.10
2022-08-21T18:25:05.674Z,3.22
2022-08-21T18:27:32.216Z,3.42
2022-08-21T18:30:00.224Z,3.42
2022-08-21T18:32:31.768Z,3.10
2022-08-21T18:35:01.711Z,3.15
2022-08-21T18:37:28.944Z,3.25
2022-08-21T18:39:56.053Z,3.55
2022-08-21T18:42:28.779Z,3.47
2022-08-21T18:45:00.761Z,3.30
2022-08-21T18:47:33.670Z,3.58
2022-08-21T18:50:00.215Z,3.33
2022-08-21T18:52:28.469Z,3.53
2022-08-21T18:54:55.353Z,3.67
2022-08-21T18:57:25.452Z,3.70
2022-08-21T18:59:51.965Z,3.50
2022-08-21T19:02:21.199Z,3.70
2022-08-21T19:04:48.091Z,3.35
2022-08-21T19:07:16.057Z,3.60
2022-08-21T19:09:56.917Z,4.03
2022-08-21T19:12:29.827Z,4.22
2022-08-21T19:14:59.866Z,3.80
2022-08-21T19:17:27.904Z,3.83
2022-08-21T19:20:16.728Z,4.25
2022-08-21T19:22:53.468Z,4.00
2022-08-21T19:28:13.515Z,3.53
2022-08-21T19:30:51.007Z,3.92
2022-08-21T19:33:25.755Z,4.43
2022-08-21T19:35:55.179Z,4.25
2022-08-21T19:38:21.877Z,4.65
2022-08-21T19:40:49.121Z,4.38
2022-08-21T19:43:15.905Z,4.28
2022-08-21T19:45:52.740Z,4.88
2022-08-21T19:48:21.877Z,3.95
2022-08-21T19:50:50.961Z,4.07
2022-08-21T19:53:19.219Z,4.22
2022-08-21T19:55:48.244Z,4.10
2022-08-21T19:58:40.948Z,4.20
2022-08-21T20:01:12.443Z,4.15
2022-08-21T20:03:57.153Z,4.40
2022-08-21T20:06:24.899Z,3.85
2022-08-21T20:08:52.836Z,4.10
2022-08-21T20:11:26.108Z,4.20
2022-08-21T20:13:55.970Z,4.18
2022-08-21T20:16:24.716Z,4.30
2022-08-21T20:18:52.524Z,4.05
2022-08-21T20:21:19.078Z,4.53
2022-08-21T20:23:48.953Z,4.25
2022-08-21T20:26:16.636Z,3.85
2022-08-21T20:28:46.394Z,4.18
2022-08-21T20:31:17.650Z,4.60
2022-08-21T20:33:46.281Z,4.00
2022-08-21T20:36:16.131Z,4.30
2022-08-21T20:38:42.710Z,4.45
2022-08-21T20:43:59.475Z,4.32
2022-08-21T20:46:29.699Z,4.40
2022-08-21T20:48:56.347Z,4.38
2022-08-21T20:51:42.624Z,4.05
2022-08-21T20:54:31.019Z,4.70
2022-08-21T20:57:03.633Z,4.32
2022-08-21T20:59:30.100Z,4.32
2022-08-21T21:02:16.427Z,4.40
2022-08-21T21:04:48.121Z,4.30
2022-08-21T21:07:32.412Z,4.75
2022-08-21T21:10:06.111Z,4.68
2022-08-21T21:12:37.574Z,4.20
2022-08-21T21:15:24.489Z,4.70
2022-08-21T21:18:00.136Z,4.68
2022-08-21T21:20:36.841Z,4.47
2022-08-21T21:23:19.823Z,5.30
2022-08-21T21:25:55.928Z,5.30
2022-08-21T21:28:51.482Z,4.75
2022-08-21T21:31:18.245Z,4.65
2022-08-21T21:33:46.812Z,5.03
2022-08-21T21:36:29.428Z,5.03
2022-08-21T21:39:10.241Z,5.00
2022-08-21T21:41:46.897Z,4.80
2022-08-21T21:44:35.627Z,4.57
2022-08-21T21:47:14.274Z,4.75
2022-08-21T21:49:50.059Z,4.43
2022-08-21T21:52:32.084Z,4.35
2022-08-21T21:55:23.768Z,4.43
2022-08-21T21:57:59.824Z,4.50
2022-08-21T22:00:30.905Z,4.70
2022-08-21T22:03:25.387Z,4.78
2022-08-21T22:05:51.804Z,4.43
2022-08-21T22:08:39.185Z,4.43
2022-08-21T22:14:10.810Z,4.28
2022-08-21T22:16:37.682Z,4.60
2022-08-21T22:19:36.584Z,4.47
2022-08-21T22:22:21.181Z,4.68
2022-08-21T22:24:52.364Z,5.15
2022-08-21T22:27:28.937Z,4.40
2022-08-21T22:30:00.003Z,4.55
2022-08-21T22:32:45.878Z,4.72
2022-08-21T22:35:17.835Z,4.70
2022-08-21T22:37:50.836Z,4.93
2022-08-21T22:40:23.143Z,4.80
2022-08-21T22:43:07.335Z,5.20
2022-08-21T22:45:58.884Z,5.13
2022-08-21T22:48:33.375Z,5.25
2022-08-21T22:51:05.890Z,4.75
2022-08-21T22:53:37.951Z,5.05
2022-08-21T22:56:07.571Z,5.47
2022-08-21T22:58:40.862Z,4.70
2022-08-21T23:04:30.021Z,4.63
2022-08-21T23:07:02.072Z,4.93
2022-08-21T23:09:46.206Z,4.63
2022-08-21T23:12:34.077Z,4.80
2022-08-21T23:15:10.732Z,4.65
2022-08-21T23:17:50.020Z,4.72
2022-08-21T23:20:38.044Z,4.85
2022-08-21T23:23:21.361Z,5.03
2022-08-21T23:26:17.401Z,4.82
2022-08-21T23:29:10.039Z,5.32
2022-08-21T23:32:17.411Z,4.30
2022-08-21T23:35:07.570Z,4.55
2022-08-21T23:38:12.749Z,5.30
2022-08-21T23:40:50.568Z,5.22
2022-08-21T23:43:46.172Z,5.30
2022-08-21T23:46:37.632Z,5.70
2022-08-21T23:49:44.028Z,5.20
2022-08-21T23:52:19.818Z,5.03
2022-08-21T23:55:02.569Z,4.70
2022-08-21T23:57:45.559Z,5.32
